sensor_id;sensor_type;location;lat;lon;timestamp;temperature;humidity
7014;DHT22;3547;50.774;12.918;2023-03-13T00:01:37;7.40;99.90
7014;DHT22;3547;50.774;12.918;2023-03-13T00:04:05;7.30;99.90
7014;DHT22;3547;50.774;12.918;2023-03-13T00:06:38;7.30;99.90
7014;DHT22;3547;50.774;12.918;2023-03-13T00:09:07;7.40;99.90
7014;DHT22;3547;50.774;12.918;2023-03-13T00:19:21;7.40;99.90
7014;DHT22;3547;50.774;12.918;2023-03-13T00:24:23;7.30;99.90
7014;DHT22;3547;50.774;12.918;2023-03-13T00:26:51;7.30;99.90
7014;DHT22;3547;50.774;12.918;2023-03-13T00:29:19;7.30;99.90
7014;DHT22;3547;50.774;12.918;2023-03-13T00:31:47;7.30;99.90
7014;DHT22;3547;50.774;12.918;2023-03-13T00:34:13;7.30;99.90
7014;DHT22;3547;50.774;12.918;2023-03-13T00:39:15;7.20;99.90
7014;DHT22;3547;50.774;12.918;2023-03-13T00:44:17;7.10;99.90
7014;DHT22;3547;50.774;12.918;2023-03-13T00:46:44;7.10;99.90
7014;DHT22;3547;50.774;12.918;2023-03-13T00:49:10;7.20;99.90
7014;DHT22;3547;50.774;12.918;2023-03-13T00:54:18;7.10;99.90
7014;DHT22;3547;50.774;12.918;2023-03-13T01:07:07;7.20;99.90
7014;DHT22;3547;50.774;12.918;2023-03-13T01:09:36;7.10;99.90
7014;DHT22;3547;50.774;12.918;2023-03-13T01:22:29;7.20;99.90
7014;DHT22;3547;50.774;12.918;2023-03-13T01:24:55;7.20;99.90
7014;DHT22;3547;50.774;12.918;2023-03-13T01:27:21;7.30;99.90
7014;DHT22;3547;50.774;12.918;2023-03-13T01:40:12;7.20;99.90
7014;DHT22;3547;50.774;12.918;2023-03-13T01:42:58;7.20;99.90
7014;DHT22;3547;50.774;12.918;2023-03-13T01:45:53;7.20;99.90
7014;DHT22;3547;50.774;12.918;2023-03-13T02:00:06;7.10;99.90
7014;DHT22;3547;50.774;12.918;2023-03-13T02:41:45;7.00;99.90
7014;DHT22;3547;50.774;12.918;2023-03-13T02:44:12;7.00;99.90
7014;DHT22;3547;50.774;12.918;2023-03-13T02:46:46;7.10;99.90
7014;DHT22;3547;50.774;12.918;2023-03-13T02:49:25;7.00;99.90
7014;DHT22;3547;50.774;12.918;2023-03-13T03:02:17;7.10;99.90
7014;DHT22;3547;50.774;12.918;2023-03-13T03:04:43;7.10;99.90
7014;DHT22;3547;50.774;12.918;2023-03-13T03:07:09;7.10;99.90
7014;DHT22;3547;50.774;12.918;2023-03-13T03:09:35;7.20;99.90
7014;DHT22;3547;50.774;12.918;2023-03-13T03:12:02;7.10;99.90
7014;DHT22;3547;50.774;12.918;2023-03-13T03:14:28;7.20;99.90
7014;DHT22;3547;50.774;12.918;2023-03-13T03:16:54;7.20;99.90
7014;DHT22;3547;50.774;12.918;2023-03-13T03:19:20;7.20;99.90
7014;DHT22;3547;50.774;12.918;2023-03-13T03:21:46;7.30;99.90
7014;DHT22;3547;50.774;12.918;2023-03-13T03:24:14;7.30;99.90
7014;DHT22;3547;50.774;12.918;2023-03-13T03:26:40;7.30;99.90
7014;DHT22;3547;50.774;12.918;2023-03-13T03:29:07;7.30;99.90
7014;DHT22;3547;50.774;12.918;2023-03-13T03:31:33;7.30;99.90
7014;DHT22;3547;50.774;12.918;2023-03-13T03:33:59;7.30;99.90
7014;DHT22;3547;50.774;12.918;2023-03-13T03:36:27;7.30;99.90
7014;DHT22;3547;50.774;12.918;2023-03-13T03:41:30;7.40;99.90
7014;DHT22;3547;50.774;12.918;2023-03-13T03:43:56;7.40;99.90
7014;DHT22;3547;50.774;12.918;2023-03-13T03:46:22;7.40;99.90
7014;DHT22;3547;50.774;12.918;2023-03-13T03:48:49;7.40;99.90
7014;DHT22;3547;50.774;12.918;2023-03-13T03:51:40;7.40;99.90
7014;DHT22;3547;50.774;12.918;2023-03-13T03:54:06;7.40;99.90
7014;DHT22;3547;50.774;12.918;2023-03-13T03:59:55;7.40;99.90
7014;DHT22;3547;50.774;12.918;2023-03-13T04:04:57;7.40;99.90
7014;DHT22;3547;50.774;12.918;2023-03-13T04:07:23;7.40;99.90
7014;DHT22;3547;50.774;12.918;2023-03-13T04:09:49;7.50;99.90
7014;DHT22;3547;50.774;12.918;2023-03-13T04:12:15;7.40;99.90
7014;DHT22;3547;50.774;12.918;2023-03-13T04:14:41;7.60;99.90
7014;DHT22;3547;50.774;12.918;2023-03-13T04:17:08;7.60;99.90
7014;DHT22;3547;50.774;12.918;2023-03-13T04:19:34;7.60;99.90
7014;DHT22;3547;50.774;12.918;2023-03-13T04:24:37;7.60;99.90
7014;DHT22;3547;50.774;12.918;2023-03-13T04:27:03;7.60;99.90
7014;DHT22;3547;50.774;12.918;2023-03-13T04:50:18;7.80;99.90
7014;DHT22;3547;50.774;12.918;2023-03-13T04:52:44;7.80;99.90
7014;DHT22;3547;50.774;12.918;2023-03-13T04:55:14;7.80;99.90
7014;DHT22;3547;50.774;12.918;2023-03-13T05:00:46;7.90;99.90
7014;DHT22;3547;50.774;12.918;2023-03-13T05:03:12;7.90;99.90
7014;DHT22;3547;50.774;12.918;2023-03-13T05:08:52;7.90;99.90
7014;DHT22;3547;50.774;12.918;2023-03-13T05:14:18;7.90;99.90
7014;DHT22;3547;50.774;12.918;2023-03-13T05:16:44;7.90;99.90
7014;DHT22;3547;50.774;12.918;2023-03-13T05:24:21;7.90;99.90
7014;DHT22;3547;50.774;12.918;2023-03-13T05:29:19;7.90;99.90
7014;DHT22;3547;50.774;12.918;2023-03-13T05:31:51;8.00;99.90
7014;DHT22;3547;50.774;12.918;2023-03-13T05:37:09;8.00;99.90
7014;DHT22;3547;50.774;12.918;2023-03-13T05:39:38;8.00;99.90
7014;DHT22;3547;50.774;12.918;2023-03-13T05:42:07;8.00;99.90
7014;DHT22;3547;50.774;12.918;2023-03-13T05:48:06;8.20;99.90
7014;DHT22;3547;50.774;12.918;2023-03-13T05:50:38;8.20;99.90
7014;DHT22;3547;50.774;12.918;2023-03-13T05:55:41;8.20;99.90
7014;DHT22;3547;50.774;12.918;2023-03-13T05:58:07;8.30;99.90
7014;DHT22;3547;50.774;12.918;2023-03-13T06:03:56;8.20;99.90
7014;DHT22;3547;50.774;12.918;2023-03-13T06:09:36;8.30;99.90
7014;DHT22;3547;50.774;12.918;2023-03-13T06:12:02;8.30;99.90
7014;DHT22;3547;50.774;12.918;2023-03-13T06:14:30;8.30;99.90
7014;DHT22;3547;50.774;12.918;2023-03-13T06:16:57;8.30;99.90
7014;DHT22;3547;50.774;12.918;2023-03-13T06:19:27;8.30;99.90
7014;DHT22;3547;50.774;12.918;2023-03-13T06:24:34;8.40;99.90
7014;DHT22;3547;50.774;12.918;2023-03-13T06:27:01;8.50;99.90
7014;DHT22;3547;50.774;12.918;2023-03-13T06:29:28;8.50;99.90
7014;DHT22;3547;50.774;12.918;2023-03-13T06:31:54;8.50;99.90
7014;DHT22;3547;50.774;12.918;2023-03-13T06:34:20;8.60;99.90
7014;DHT22;3547;50.774;12.918;2023-03-13T06:36:46;8.60;99.90
7014;DHT22;3547;50.774;12.918;2023-03-13T06:39:13;8.60;99.90
7014;DHT22;3547;50.774;12.918;2023-03-13T06:41:39;8.60;99.90
7014;DHT22;3547;50.774;12.918;2023-03-13T06:44:08;8.60;99.90
7014;DHT22;3547;50.774;12.918;2023-03-13T06:46:49;8.60;99.90
7014;DHT22;3547;50.774;12.918;2023-03-13T06:49:15;8.70;99.90
7014;DHT22;3547;50.774;12.918;2023-03-13T06:51:42;8.70;99.90
7014;DHT22;3547;50.774;12.918;2023-03-13T06:54:11;8.70;99.90
7014;DHT22;3547;50.774;12.918;2023-03-13T06:56:44;8.70;99.90
7014;DHT22;3547;50.774;12.918;2023-03-13T06:59:10;8.70;99.90
7014;DHT22;3547;50.774;12.918;2023-03-13T07:01:42;8.80;99.90
7014;DHT22;3547;50.774;12.918;2023-03-13T07:04:17;8.90;99.90
7014;DHT22;3547;50.774;12.918;2023-03-13T07:09:22;8.90;99.90
7014;DHT22;3547;50.774;12.918;2023-03-13T07:11:51;9.00;99.90
7014;DHT22;3547;50.774;12.918;2023-03-13T07:22:20;9.20;99.90
7014;DHT22;3547;50.774;12.918;2023-03-13T07:43:23;9.70;99.90
7014;DHT22;3547;50.774;12.918;2023-03-13T07:46:04;9.70;99.90
7014;DHT22;3547;50.774;12.918;2023-03-13T07:48:46;9.60;99.90
7014;DHT22;3547;50.774;12.918;2023-03-13T07:51:33;9.60;99.90
7014;DHT22;3547;50.774;12.918;2023-03-13T09:01:21;10.20;99.90
7014;DHT22;3547;50.774;12.918;2023-03-13T09:03:48;10.30;99.90
7014;DHT22;3547;50.774;12.918;2023-03-13T09:06:15;10.50;99.90
7014;DHT22;3547;50.774;12.918;2023-03-13T09:08:49;10.50;99.90
7014;DHT22;3547;50.774;12.918;2023-03-13T09:11:18;10.60;99.90
7014;DHT22;3547;50.774;12.918;2023-03-13T09:14:07;10.60;99.90
7014;DHT22;3547;50.774;12.918;2023-03-13T09:19:57;10.80;99.90
7014;DHT22;3547;50.774;12.918;2023-03-13T09:22:23;10.90;99.90
7014;DHT22;3547;50.774;12.918;2023-03-13T09:24:53;10.90;99.90
7014;DHT22;3547;50.774;12.918;2023-03-13T09:27:22;10.90;99.90
7014;DHT22;3547;50.774;12.918;2023-03-13T09:29:59;11.00;99.90
7014;DHT22;3547;50.774;12.918;2023-03-13T09:32:37;11.10;99.90
7014;DHT22;3547;50.774;12.918;2023-03-13T09:51:40;12.30;1.00
7014;DHT22;3547;50.774;12.918;2023-03-13T11:22:28;12.00;99.90
7014;DHT22;3547;50.774;12.918;2023-03-13T11:55:54;12.20;99.90
7014;DHT22;3547;50.774;12.918;2023-03-13T11:59:07;12.50;99.90
7014;DHT22;3547;50.774;12.918;2023-03-13T12:01:42;12.50;99.90
7014;DHT22;3547;50.774;12.918;2023-03-13T12:04:26;12.80;99.90
7014;DHT22;3547;50.774;12.918;2023-03-13T12:10:26;13.40;1.00
7014;DHT22;3547;50.774;12.918;2023-03-13T12:13:50;13.80;1.00
7014;DHT22;3547;50.774;12.918;2023-03-13T12:16:24;14.10;99.90
7014;DHT22;3547;50.774;12.918;2023-03-13T12:22:14;14.10;99.90
7014;DHT22;3547;50.774;12.918;2023-03-13T12:34:11;14.20;99.90
7014;DHT22;3547;50.774;12.918;2023-03-13T13:22:52;14.60;99.90
7014;DHT22;3547;50.774;12.918;2023-03-13T13:28:33;14.10;99.90
7014;DHT22;3547;50.774;12.918;2023-03-13T13:37:23;14.30;99.90
7014;DHT22;3547;50.774;12.918;2023-03-13T13:52:18;13.90;99.90
7014;DHT22;3547;50.774;12.918;2023-03-13T13:54:56;14.00;99.90
7014;DHT22;3547;50.774;12.918;2023-03-13T13:57:26;14.30;99.90
7014;DHT22;3547;50.774;12.918;2023-03-13T14:06:20;14.40;99.90
7014;DHT22;3547;50.774;12.918;2023-03-13T14:09:10;14.50;99.90
7014;DHT22;3547;50.774;12.918;2023-03-13T14:11:38;15.00;99.90
7014;DHT22;3547;50.774;12.918;2023-03-13T14:14:20;15.40;99.90
7014;DHT22;3547;50.774;12.918;2023-03-13T14:17:12;15.60;99.90
7014;DHT22;3547;50.774;12.918;2023-03-13T14:19:48;15.80;99.90
7014;DHT22;3547;50.774;12.918;2023-03-13T14:22:19;15.70;99.90
7014;DHT22;3547;50.774;12.918;2023-03-13T14:24:56;15.60;99.90
7014;DHT22;3547;50.774;12.918;2023-03-13T14:27:26;15.60;99.90
7014;DHT22;3547;50.774;12.918;2023-03-13T14:30:00;15.40;99.90
7014;DHT22;3547;50.774;12.918;2023-03-13T14:35:22;14.90;99.90
7014;DHT22;3547;50.774;12.918;2023-03-13T14:37:59;14.80;99.90
7014;DHT22;3547;50.774;12.918;2023-03-13T14:40:57;14.70;99.90
7014;DHT22;3547;50.774;12.918;2023-03-13T14:43:35;14.70;99.90
7014;DHT22;3547;50.774;12.918;2023-03-13T14:49:18;14.60;99.90
7014;DHT22;3547;50.774;12.918;2023-03-13T14:54:36;14.50;99.90
7014;DHT22;3547;50.774;12.918;2023-03-13T14:57:13;14.50;99.90
7014;DHT22;3547;50.774;12.918;2023-03-13T14:59:47;14.40;99.90
7014;DHT22;3547;50.774;12.918;2023-03-13T15:02:29;14.30;99.90
7014;DHT22;3547;50.774;12.918;2023-03-13T15:05:02;14.20;99.90
7014;DHT22;3547;50.774;12.918;2023-03-13T15:07:50;14.10;99.90
7014;DHT22;3547;50.774;12.918;2023-03-13T15:10:21;14.20;99.90
7014;DHT22;3547;50.774;12.918;2023-03-13T15:12:48;14.30;99.90
7014;DHT22;3547;50.774;12.918;2023-03-13T15:15:14;14.40;99.90
7014;DHT22;3547;50.774;12.918;2023-03-13T15:17:41;14.40;99.90
7014;DHT22;3547;50.774;12.918;2023-03-13T15:20:11;14.40;99.90
7014;DHT22;3547;50.774;12.918;2023-03-13T15:22:41;14.40;99.90
7014;DHT22;3547;50.774;12.918;2023-03-13T15:25:14;14.30;99.90
7014;DHT22;3547;50.774;12.918;2023-03-13T15:27:41;14.30;99.90
7014;DHT22;3547;50.774;12.918;2023-03-13T15:30:16;14.50;99.90
7014;DHT22;3547;50.774;12.918;2023-03-13T15:32:43;14.80;99.90
7014;DHT22;3547;50.774;12.918;2023-03-13T15:35:27;15.10;99.90
7014;DHT22;3547;50.774;12.918;2023-03-13T15:38:01;15.30;99.90
7014;DHT22;3547;50.774;12.918;2023-03-13T15:44:10;15.10;99.90
7014;DHT22;3547;50.774;12.918;2023-03-13T15:50:34;14.70;99.90
7014;DHT22;3547;50.774;12.918;2023-03-13T15:53:00;14.60;99.90
7014;DHT22;3547;50.774;12.918;2023-03-13T15:55:28;14.50;99.90
7014;DHT22;3547;50.774;12.918;2023-03-13T15:57:55;14.60;99.90
7014;DHT22;3547;50.774;12.918;2023-03-13T16:00:26;14.50;99.90
7014;DHT22;3547;50.774;12.918;2023-03-13T16:05:28;14.50;99.90
7014;DHT22;3547;50.774;12.918;2023-03-13T16:07:54;15.10;99.90
7014;DHT22;3547;50.774;12.918;2023-03-13T16:10:24;15.10;99.90
7014;DHT22;3547;50.774;12.918;2023-03-13T16:12:50;15.00;99.90
7014;DHT22;3547;50.774;12.918;2023-03-13T16:15:17;14.80;99.90
7014;DHT22;3547;50.774;12.918;2023-03-13T16:17:46;14.70;99.90
7014;DHT22;3547;50.774;12.918;2023-03-13T16:20:18;15.00;99.90
7014;DHT22;3547;50.774;12.918;2023-03-13T16:22:46;14.90;99.90
7014;DHT22;3547;50.774;12.918;2023-03-13T16:25:13;15.00;99.90
7014;DHT22;3547;50.774;12.918;2023-03-13T16:27:45;14.90;99.90
7014;DHT22;3547;50.774;12.918;2023-03-13T16:30:24;14.70;99.90
7014;DHT22;3547;50.774;12.918;2023-03-13T16:32:51;14.40;99.90
7014;DHT22;3547;50.774;12.918;2023-03-13T16:35:17;14.40;99.90
7014;DHT22;3547;50.774;12.918;2023-03-13T16:37:44;14.20;99.90
7014;DHT22;3547;50.774;12.918;2023-03-13T16:40:19;14.00;99.90
7014;DHT22;3547;50.774;12.918;2023-03-13T16:42:45;14.00;99.90
7014;DHT22;3547;50.774;12.918;2023-03-13T16:45:12;13.90;99.90
7014;DHT22;3547;50.774;12.918;2023-03-13T16:47:40;13.80;99.90
7014;DHT22;3547;50.774;12.918;2023-03-13T16:52:43;13.60;99.90
7014;DHT22;3547;50.774;12.918;2023-03-13T16:55:09;13.50;99.90
7014;DHT22;3547;50.774;12.918;2023-03-13T16:57:35;13.40;99.90
7014;DHT22;3547;50.774;12.918;2023-03-13T17:00:02;13.20;99.90
7014;DHT22;3547;50.774;12.918;2023-03-13T17:02:32;13.10;99.90
7014;DHT22;3547;50.774;12.918;2023-03-13T17:05:02;13.00;99.90
7014;DHT22;3547;50.774;12.918;2023-03-13T17:07:28;12.90;99.90
7014;DHT22;3547;50.774;12.918;2023-03-13T17:09:55;12.80;99.90
7014;DHT22;3547;50.774;12.918;2023-03-13T17:12:21;12.70;99.90
7014;DHT22;3547;50.774;12.918;2023-03-13T17:14:47;12.70;99.90
7014;DHT22;3547;50.774;12.918;2023-03-13T17:17:18;12.60;99.90
7014;DHT22;3547;50.774;12.918;2023-03-13T17:19:45;12.60;99.90
7014;DHT22;3547;50.774;12.918;2023-03-13T17:55:37;12.30;99.90
7014;DHT22;3547;50.774;12.918;2023-03-13T18:03:21;12.40;99.90
7014;DHT22;3547;50.774;12.918;2023-03-13T18:09:17;12.40;99.90
7014;DHT22;3547;50.774;12.918;2023-03-13T18:11:52;12.40;99.90
7014;DHT22;3547;50.774;12.918;2023-03-13T18:14:28;12.50;99.90
7014;DHT22;3547;50.774;12.918;2023-03-13T19:36:22;9.60;1.00
7014;DHT22;3547;50.774;12.918;2023-03-13T19:38:49;9.70;43.80
7014;DHT22;3547;50.774;12.918;2023-03-13T19:41:18;9.60;20.00
7014;DHT22;3547;50.774;12.918;2023-03-13T19:43:45;9.70;99.90
7014;DHT22;3547;50.774;12.918;2023-03-13T19:46:20;9.70;1.00
7014;DHT22;3547;50.774;12.918;2023-03-13T19:48:46;9.70;90.90
7014;DHT22;3547;50.774;12.918;2023-03-13T19:51:13;9.80;93.60
7014;DHT22;3547;50.774;12.918;2023-03-13T19:53:43;9.80;89.10
7014;DHT22;3547;50.774;12.918;2023-03-13T19:59:31;9.80;1.00
7014;DHT22;3547;50.774;12.918;2023-03-13T20:02:00;9.80;1.00
7014;DHT22;3547;50.774;12.918;2023-03-13T20:04:28;9.80;96.80
7014;DHT22;3547;50.774;12.918;2023-03-13T20:10:28;9.80;9.50
7014;DHT22;3547;50.774;12.918;2023-03-13T20:12:54;9.80;1.00
7014;DHT22;3547;50.774;12.918;2023-03-13T20:15:22;9.80;1.00
7014;DHT22;3547;50.774;12.918;2023-03-13T20:17:48;9.80;6.70
7014;DHT22;3547;50.774;12.918;2023-03-13T20:20:15;9.80;3.20
7014;DHT22;3547;50.774;12.918;2023-03-13T20:22:42;9.80;1.00
7014;DHT22;3547;50.774;12.918;2023-03-13T20:25:11;9.80;1.00
7014;DHT22;3547;50.774;12.918;2023-03-13T20:27:38;9.70;1.00
7014;DHT22;3547;50.774;12.918;2023-03-13T20:30:12;9.80;1.00
7014;DHT22;3547;50.774;12.918;2023-03-13T20:32:38;9.80;1.00
7014;DHT22;3547;50.774;12.918;2023-03-13T20:35:06;9.80;1.00
7014;DHT22;3547;50.774;12.918;2023-03-13T20:37:48;9.80;1.00
7014;DHT22;3547;50.774;12.918;2023-03-13T20:40:19;9.80;1.00
7014;DHT22;3547;50.774;12.918;2023-03-13T20:42:45;9.80;1.00
7014;DHT22;3547;50.774;12.918;2023-03-13T20:45:11;9.80;22.40
7014;DHT22;3547;50.774;12.918;2023-03-13T20:47:38;9.80;10.00
7014;DHT22;3547;50.774;12.918;2023-03-13T20:50:07;9.80;1.00
7014;DHT22;3547;50.774;12.918;2023-03-13T20:52:34;9.80;15.70
7014;DHT22;3547;50.774;12.918;2023-03-13T20:55:00;9.90;41.30
7014;DHT22;3547;50.774;12.918;2023-03-13T20:57:30;9.80;12.60
7014;DHT22;3547;50.774;12.918;2023-03-13T20:59:56;9.90;69.30
7014;DHT22;3547;50.774;12.918;2023-03-13T21:02:26;9.90;57.90
7014;DHT22;3547;50.774;12.918;2023-03-13T21:04:52;9.90;13.40
7014;DHT22;3547;50.774;12.918;2023-03-13T21:07:19;9.90;6.80
7014;DHT22;3547;50.774;12.918;2023-03-13T21:09:48;9.90;1.00
7014;DHT22;3547;50.774;12.918;2023-03-13T21:12:15;9.90;1.00
7014;DHT22;3547;50.774;12.918;2023-03-13T21:14:41;9.90;1.00
7014;DHT22;3547;50.774;12.918;2023-03-13T21:17:07;9.90;11.40
7014;DHT22;3547;50.774;12.918;2023-03-13T21:19:36;9.90;99.90
7014;DHT22;3547;50.774;12.918;2023-03-13T21:22:02;9.90;1.00
7014;DHT22;3547;50.774;12.918;2023-03-13T21:24:28;10.00;1.00
7014;DHT22;3547;50.774;12.918;2023-03-13T21:26:54;9.90;1.00
7014;DHT22;3547;50.774;12.918;2023-03-13T21:29:24;9.90;1.00
7014;DHT22;3547;50.774;12.918;2023-03-13T21:31:50;10.00;1.00
7014;DHT22;3547;50.774;12.918;2023-03-13T21:34:16;10.00;1.00
7014;DHT22;3547;50.774;12.918;2023-03-13T21:36:45;10.00;1.00
7014;DHT22;3547;50.774;12.918;2023-03-13T21:39:11;9.90;1.00
7014;DHT22;3547;50.774;12.918;2023-03-13T21:41:38;9.90;2.80
7014;DHT22;3547;50.774;12.918;2023-03-13T21:44:04;9.90;90.90
7014;DHT22;3547;50.774;12.918;2023-03-13T21:46:30;9.90;35.00
7014;DHT22;3547;50.774;12.918;2023-03-13T21:49:01;9.80;1.00
7014;DHT22;3547;50.774;12.918;2023-03-13T21:51:34;9.90;43.30
7014;DHT22;3547;50.774;12.918;2023-03-13T21:54:07;9.90;6.70
7014;DHT22;3547;50.774;12.918;2023-03-13T21:56:42;9.90;20.30
7014;DHT22;3547;50.774;12.918;2023-03-13T21:59:08;9.90;22.90
7014;DHT22;3547;50.774;12.918;2023-03-13T22:01:34;10.00;44.70
7014;DHT22;3547;50.774;12.918;2023-03-13T22:04:01;10.00;3.50
7014;DHT22;3547;50.774;12.918;2023-03-13T22:06:27;10.00;95.00
7014;DHT22;3547;50.774;12.918;2023-03-13T22:08:54;10.10;99.90
7014;DHT22;3547;50.774;12.918;2023-03-13T22:11:24;10.10;99.90
7014;DHT22;3547;50.774;12.918;2023-03-13T22:13:50;10.10;98.70
7014;DHT22;3547;50.774;12.918;2023-03-13T22:16:17;10.10;99.90
7014;DHT22;3547;50.774;12.918;2023-03-13T22:18:46;10.20;99.90
7014;DHT22;3547;50.774;12.918;2023-03-13T22:21:12;10.20;99.90
7014;DHT22;3547;50.774;12.918;2023-03-13T22:23:39;10.20;99.90
7014;DHT22;3547;50.774;12.918;2023-03-13T22:26:06;10.20;99.90
7014;DHT22;3547;50.774;12.918;2023-03-13T22:28:32;10.20;99.90
7014;DHT22;3547;50.774;12.918;2023-03-13T22:31:00;10.20;1.00
7014;DHT22;3547;50.774;12.918;2023-03-13T22:33:34;10.20;1.00
7014;DHT22;3547;50.774;12.918;2023-03-13T22:36:00;10.20;26.50
7014;DHT22;3547;50.774;12.918;2023-03-13T22:38:27;10.20;88.30
7014;DHT22;3547;50.774;12.918;2023-03-13T22:41:02;10.20;88.70
7014;DHT22;3547;50.774;12.918;2023-03-13T22:43:35;10.30;28.40
7014;DHT22;3547;50.774;12.918;2023-03-13T22:46:07;10.30;5.80
7014;DHT22;3547;50.774;12.918;2023-03-13T22:48:35;10.30;1.00
7014;DHT22;3547;50.774;12.918;2023-03-13T22:51:04;10.20;99.90
7014;DHT22;3547;50.774;12.918;2023-03-13T22:53:31;10.20;99.90
7014;DHT22;3547;50.774;12.918;2023-03-13T22:55:58;10.20;99.90
7014;DHT22;3547;50.774;12.918;2023-03-13T22:58:32;10.20;52.10
7014;DHT22;3547;50.774;12.918;2023-03-13T23:01:05;10.20;99.90
7014;DHT22;3547;50.774;12.918;2023-03-13T23:03:32;10.20;97.50
7014;DHT22;3547;50.774;12.918;2023-03-13T23:11:34;10.20;43.90
7014;DHT22;3547;50.774;12.918;2023-03-13T23:14:00;10.20;29.50
7014;DHT22;3547;50.774;12.918;2023-03-13T23:16:27;10.20;18.40
7014;DHT22;3547;50.774;12.918;2023-03-13T23:19:00;10.10;6.20
7014;DHT22;3547;50.774;12.918;2023-03-13T23:21:30;10.10;18.10
7014;DHT22;3547;50.774;12.918;2023-03-13T23:24:04;10.00;34.00
7014;DHT22;3547;50.774;12.918;2023-03-13T23:26:33;10.00;58.30
7014;DHT22;3547;50.774;12.918;2023-03-13T23:28:59;10.00;63.40
7014;DHT22;3547;50.774;12.918;2023-03-13T23:31:27;9.90;44.80
7014;DHT22;3547;50.774;12.918;2023-03-13T23:33:56;9.80;32.90
7014;DHT22;3547;50.774;12.918;2023-03-13T23:36:28;9.80;26.50
7014;DHT22;3547;50.774;12.918;2023-03-13T23:38:58;9.80;1.00
7014;DHT22;3547;50.774;12.918;2023-03-13T23:41:29;9.80;1.70
7014;DHT22;3547;50.774;12.918;2023-03-13T23:44:01;9.80;1.00
7014;DHT22;3547;50.774;12.918;2023-03-13T23:46:27;9.90;1.00
7014;DHT22;3547;50.774;12.918;2023-03-13T23:48:55;9.80;1.00
7014;DHT22;3547;50.774;12.918;2023-03-13T23:51:23;9.70;1.00
7014;DHT22;3547;50.774;12.918;2023-03-13T23:53:56;9.70;1.00
7014;DHT22;3547;50.774;12.918;2023-03-13T23:56:41;9.70;1.00
7014;DHT22;3547;50.774;12.918;2023-03-13T23:59:08;9.70;1.00
